createdAt,value
2017-09-19T00:01:41.167Z,70.60
2017-09-19T00:04:07.295Z,71.40
2017-09-19T00:06:33.507Z,70.60
2017-09-19T00:09:00.382Z,70.60
2017-09-19T00:11:27.271Z,70.50
2017-09-19T00:13:53.395Z,70.50
2017-09-19T00:16:19.562Z,70.70
2017-09-19T00:18:45.718Z,70.40
2017-09-19T00:21:11.869Z,70.40
2017-09-19T00:23:38.008Z,70.30
2017-09-19T00:26:04.128Z,70.50
2017-09-19T00:28:30.321Z,70.50
2017-09-19T00:30:56.451Z,70.40
2017-09-19T00:33:23.405Z,70.70
2017-09-19T00:35:50.287Z,70.70
2017-09-19T00:38:16.455Z,70.70
2017-09-19T00:40:42.567Z,70.70
2017-09-19T00:43:08.718Z,70.70
2017-09-19T00:45:34.847Z,71.20
2017-09-19T00:48:01.024Z,71.10
2017-09-19T00:50:28.039Z,70.70
2017-09-19T00:52:54.162Z,70.60
2017-09-19T00:55:20.340Z,70.70
2017-09-19T00:57:47.215Z,71.00
2017-09-19T01:00:13.406Z,71.00
2017-09-19T01:02:39.552Z,70.60
2017-09-19T01:05:05.707Z,69.80
2017-09-19T01:07:31.841Z,69.10
2017-09-19T01:09:57.994Z,67.90
2017-09-19T01:12:24.171Z,67.50
2017-09-19T01:14:50.362Z,67.20
2017-09-19T01:17:16.579Z,67.20
2017-09-19T01:19:42.784Z,67.30
2017-09-19T01:22:08.930Z,67.10
2017-09-19T01:24:35.080Z,67.10
2017-09-19T01:27:01.336Z,67.10
2017-09-19T01:29:27.502Z,67.20
2017-09-19T01:31:53.644Z,67.10
2017-09-19T01:34:19.788Z,67.00
2017-09-19T01:36:45.922Z,67.10
2017-09-19T01:39:12.071Z,67.20
2017-09-19T01:41:38.946Z,66.90
2017-09-19T01:44:05.062Z,66.90
2017-09-19T01:46:31.208Z,67.00
2017-09-19T01:48:57.350Z,67.90
2017-09-19T01:51:23.488Z,67.90
2017-09-19T01:53:49.614Z,67.00
2017-09-19T01:56:15.771Z,67.90
2017-09-19T01:58:42.639Z,67.80
2017-09-19T02:01:08.852Z,67.80
2017-09-19T02:03:35.078Z,68.10
2017-09-19T02:06:01.217Z,68.20
2017-09-19T02:08:27.383Z,68.00
2017-09-19T02:10:53.537Z,67.90
2017-09-19T02:13:19.656Z,67.90
2017-09-19T02:15:45.838Z,68.00
2017-09-19T02:18:11.959Z,68.20
2017-09-19T02:20:38.112Z,68.10
2017-09-19T02:23:04.232Z,68.40
2017-09-19T02:25:30.367Z,68.50
2017-09-19T02:27:56.501Z,68.80
2017-09-19T02:30:22.659Z,68.80
2017-09-19T02:32:48.810Z,68.90
2017-09-19T02:35:14.935Z,68.90
2017-09-19T02:37:41.076Z,68.90
2017-09-19T02:40:07.974Z,68.90
2017-09-19T02:42:34.120Z,68.90
2017-09-19T02:45:00.995Z,68.70
2017-09-19T02:47:27.168Z,68.70
2017-09-19T02:49:54.050Z,68.90
2017-09-19T02:52:20.224Z,68.90
2017-09-19T02:54:46.373Z,69.10
2017-09-19T02:57:12.516Z,69.30
2017-09-19T02:59:38.662Z,69.30
2017-09-19T03:02:04.865Z,69.30
2017-09-19T03:04:31.043Z,69.20
2017-09-19T03:06:57.203Z,68.90
2017-09-19T03:09:23.351Z,68.90
2017-09-19T03:11:49.495Z,68.90
2017-09-19T03:14:16.551Z,68.80
2017-09-19T03:16:42.674Z,68.80
2017-09-19T03:19:08.811Z,68.60
2017-09-19T03:21:34.977Z,68.20
2017-09-19T03:24:01.115Z,68.60
2017-09-19T03:26:28.015Z,68.00
2017-09-19T03:28:54.153Z,68.00
2017-09-19T03:31:21.054Z,68.10
2017-09-19T03:33:47.180Z,68.10
2017-09-19T03:36:13.383Z,68.00
2017-09-19T03:38:39.519Z,67.90
2017-09-19T03:41:05.686Z,67.70
2017-09-19T03:43:32.554Z,67.90
2017-09-19T03:45:58.706Z,67.90
2017-09-19T03:48:24.839Z,68.00
2017-09-19T03:50:51.765Z,67.80
2017-09-19T03:53:18.646Z,67.70
2017-09-19T03:55:44.798Z,67.70
2017-09-19T03:58:10.950Z,67.60
2017-09-19T04:00:37.075Z,67.90
2017-09-19T04:03:03.223Z,68.20
2017-09-19T04:05:30.387Z,68.00
2017-09-19T04:07:56.549Z,67.90
2017-09-19T04:10:22.716Z,68.10
2017-09-19T04:12:48.884Z,68.70
2017-09-19T04:15:15.049Z,68.40
2017-09-19T04:17:41.194Z,68.50
2017-09-19T04:20:07.342Z,68.90
2017-09-19T04:22:33.492Z,68.90
2017-09-19T04:24:59.643Z,68.60
2017-09-19T04:27:25.819Z,68.70
2017-09-19T04:29:51.979Z,68.30
2017-09-19T04:32:18.171Z,68.20
2017-09-19T04:34:44.333Z,68.20
2017-09-19T04:37:10.546Z,68.30
2017-09-19T04:39:37.437Z,68.00
2017-09-19T04:42:03.631Z,68.00
2017-09-19T04:44:29.863Z,68.10
2017-09-19T04:46:56.039Z,68.00
2017-09-19T04:49:22.170Z,67.90
2017-09-19T04:51:48.350Z,68.20
2017-09-19T04:54:14.486Z,68.20
2017-09-19T04:56:40.628Z,67.80
2017-09-19T04:59:06.770Z,67.90
2017-09-19T05:01:32.903Z,68.50
2017-09-19T05:03:59.219Z,68.60
2017-09-19T05:06:25.355Z,68.60
2017-09-19T05:08:51.499Z,68.60
2017-09-19T05:11:17.647Z,68.60
2017-09-19T05:13:43.803Z,68.80
2017-09-19T05:16:09.959Z,68.90
2017-09-19T05:18:36.099Z,69.40
2017-09-19T05:21:02.225Z,69.10
2017-09-19T05:23:28.362Z,69.00
2017-09-19T05:25:54.487Z,68.80
2017-09-19T05:28:21.368Z,68.40
2017-09-19T05:30:47.555Z,68.40
2017-09-19T05:33:13.738Z,68.20
2017-09-19T05:35:39.975Z,68.30
2017-09-19T05:38:06.142Z,68.30
2017-09-19T05:40:32.306Z,68.60
2017-09-19T05:42:59.548Z,68.60
2017-09-19T05:45:25.681Z,68.40
2017-09-19T05:47:51.827Z,68.90
2017-09-19T05:50:17.959Z,67.90
2017-09-19T05:52:44.834Z,68.10
2017-09-19T05:55:10.952Z,68.10
2017-09-19T05:57:37.082Z,68.10
2017-09-19T06:00:03.258Z,68.50
2017-09-19T06:02:29.386Z,68.80
2017-09-19T06:04:55.542Z,68.60
2017-09-19T06:07:22.411Z,68.80
2017-09-19T06:09:48.552Z,68.80
2017-09-19T06:12:14.691Z,68.90
2017-09-19T06:14:40.878Z,68.90
2017-09-19T06:17:07.031Z,69.20
2017-09-19T06:19:33.199Z,69.00
2017-09-19T06:21:59.346Z,69.10
2017-09-19T06:24:26.247Z,68.80
2017-09-19T06:26:52.443Z,68.80
2017-09-19T06:29:18.604Z,69.00
2017-09-19T06:31:45.518Z,68.80
2017-09-19T06:34:11.663Z,68.80
2017-09-19T06:36:37.818Z,68.90
2017-09-19T06:39:04.066Z,68.70
2017-09-19T06:41:30.275Z,68.60
2017-09-19T06:43:57.203Z,68.60
2017-09-19T06:46:23.416Z,68.50
2017-09-19T06:48:50.304Z,69.00
2017-09-19T06:51:16.449Z,69.00
2017-09-19T06:53:43.330Z,69.60
2017-09-19T06:56:10.235Z,69.00
2017-09-19T06:58:36.380Z,69.10
2017-09-19T07:01:02.556Z,69.10
2017-09-19T07:03:28.701Z,68.90
2017-09-19T07:05:55.702Z,68.80
2017-09-19T07:08:21.857Z,68.70
2017-09-19T07:10:48.021Z,68.60
2017-09-19T07:13:14.220Z,68.40
2017-09-19T07:15:40.363Z,67.90
2017-09-19T07:18:06.561Z,67.50
2017-09-19T07:20:32.719Z,67.60
2017-09-19T07:22:58.909Z,67.50
2017-09-19T07:25:25.055Z,67.20
2017-09-19T07:27:51.217Z,67.00
2017-09-19T07:30:17.355Z,67.00
2017-09-19T07:32:43.527Z,67.30
2017-09-19T07:35:09.663Z,66.70
2017-09-19T07:37:35.787Z,66.50
2017-09-19T07:40:01.999Z,66.40
2017-09-19T07:42:28.160Z,66.10
2017-09-19T07:44:54.331Z,66.20
2017-09-19T07:47:20.516Z,65.80
2017-09-19T07:49:46.675Z,66.10
2017-09-19T07:52:12.826Z,65.70
2017-09-19T07:54:38.967Z,65.30
2017-09-19T07:57:05.097Z,65.60
2017-09-19T07:59:31.271Z,65.40
2017-09-19T08:01:57.391Z,64.30
2017-09-19T08:04:23.570Z,64.50
2017-09-19T08:06:49.720Z,65.20
2017-09-19T08:09:15.890Z,64.60
2017-09-19T08:11:42.799Z,64.50
2017-09-19T08:14:08.942Z,64.50
2017-09-19T08:16:35.170Z,63.60
2017-09-19T08:19:01.371Z,63.50
2017-09-19T08:21:27.518Z,63.10
2017-09-19T08:23:53.663Z,62.40
2017-09-19T08:26:19.823Z,61.00
2017-09-19T08:28:45.970Z,60.80
2017-09-19T08:31:12.139Z,60.70
2017-09-19T08:33:38.295Z,60.60
2017-09-19T08:36:04.478Z,60.00
2017-09-19T08:38:30.709Z,60.40
2017-09-19T08:40:56.858Z,59.70
2017-09-19T08:43:23.007Z,59.80
2017-09-19T08:45:49.138Z,59.80
2017-09-19T08:48:15.275Z,59.40
2017-09-19T08:50:41.399Z,59.00
2017-09-19T08:53:07.639Z,58.80
2017-09-19T08:55:33.785Z,58.60
2017-09-19T08:57:59.907Z,58.10
2017-09-19T09:00:26.048Z,57.30
2017-09-19T09:02:52.178Z,57.80
2017-09-19T09:05:18.364Z,57.40
2017-09-19T09:07:44.503Z,56.80
2017-09-19T09:10:10.662Z,56.40
2017-09-19T09:12:36.790Z,56.40
2017-09-19T09:15:02.991Z,55.70
2017-09-19T09:17:29.123Z,55.70
2017-09-19T09:19:55.263Z,55.80
2017-09-19T09:22:21.389Z,55.20
2017-09-19T09:24:47.547Z,54.50
2017-09-19T09:27:13.703Z,54.90
2017-09-19T09:29:39.830Z,55.10
2017-09-19T09:32:05.982Z,55.60
2017-09-19T09:34:32.141Z,54.90
2017-09-19T09:36:58.290Z,55.00
2017-09-19T09:39:24.434Z,54.30
2017-09-19T09:41:50.612Z,54.20
2017-09-19T09:44:16.783Z,54.00
2017-09-19T09:46:42.975Z,53.60
2017-09-19T09:49:09.875Z,53.40
2017-09-19T09:51:36.066Z,53.30
2017-09-19T09:54:02.219Z,53.40
2017-09-19T09:56:28.405Z,51.70
2017-09-19T09:58:54.576Z,52.10
2017-09-19T10:01:20.718Z,51.50
2017-09-19T10:03:46.887Z,51.60
2017-09-19T10:06:13.774Z,51.00
2017-09-19T10:08:39.947Z,51.00
2017-09-19T10:11:06.075Z,50.90
2017-09-19T10:13:32.222Z,49.40
2017-09-19T10:15:58.394Z,49.80
2017-09-19T10:18:24.549Z,50.60
2017-09-19T10:20:50.699Z,49.70
2017-09-19T10:23:16.819Z,48.80
2017-09-19T10:25:42.985Z,48.30
2017-09-19T10:28:09.142Z,48.00
2017-09-19T10:30:35.306Z,48.60
2017-09-19T10:33:01.435Z,47.60
2017-09-19T10:35:28.383Z,47.50
2017-09-19T10:37:54.515Z,47.50
2017-09-19T10:40:20.695Z,47.50
2017-09-19T10:42:46.890Z,47.50
2017-09-19T10:45:13.083Z,47.80
2017-09-19T10:47:39.246Z,47.50
2017-09-19T10:50:05.392Z,47.50
2017-09-19T10:52:31.526Z,47.50
2017-09-19T10:54:57.669Z,47.50
2017-09-19T10:57:23.811Z,47.60
2017-09-19T10:59:49.984Z,47.60
2017-09-19T11:02:16.906Z,47.70
2017-09-19T11:04:43.046Z,47.80
2017-09-19T11:07:09.210Z,48.40
2017-09-19T11:09:35.350Z,47.60
2017-09-19T11:12:02.263Z,47.90
2017-09-19T11:14:28.414Z,47.90
2017-09-19T11:16:54.562Z,48.10
2017-09-19T11:19:20.675Z,46.50
2017-09-19T11:21:46.860Z,46.60
2017-09-19T11:24:13.008Z,45.20
2017-09-19T11:26:39.118Z,45.40
2017-09-19T11:29:05.274Z,44.60
2017-09-19T11:31:31.398Z,44.70
2017-09-19T11:33:57.534Z,44.10
2017-09-19T11:36:23.681Z,42.80
2017-09-19T11:38:49.836Z,43.10
2017-09-19T11:41:15.981Z,43.00
2017-09-19T11:43:42.119Z,42.80
2017-09-19T11:46:08.279Z,40.70
2017-09-19T11:48:34.524Z,42.30
2017-09-19T11:51:00.671Z,43.70
2017-09-19T11:53:27.555Z,44.40
2017-09-19T11:55:53.693Z,44.40
2017-09-19T11:58:19.916Z,44.10
2017-09-19T12:00:46.061Z,43.40
2017-09-19T12:03:12.240Z,42.70
2017-09-19T12:05:39.114Z,41.00
2017-09-19T12:08:05.229Z,40.80
2017-09-19T12:10:31.377Z,39.00
2017-09-19T12:12:57.513Z,39.10
2017-09-19T12:15:24.415Z,39.30
2017-09-19T12:17:50.564Z,39.30
2017-09-19T12:20:16.722Z,39.50
2017-09-19T12:22:42.875Z,38.50
2017-09-19T12:25:09.754Z,36.50
2017-09-19T12:27:35.895Z,36.60
2017-09-19T12:30:02.055Z,37.20
2017-09-19T12:32:28.179Z,36.40
2017-09-19T12:34:54.326Z,36.50
2017-09-19T12:37:20.499Z,35.30
2017-09-19T12:39:46.636Z,34.70
2017-09-19T12:42:12.772Z,36.10
2017-09-19T12:44:38.971Z,35.70
2017-09-19T12:47:05.136Z,36.20
2017-09-19T12:49:31.261Z,37.20
2017-09-19T12:51:57.425Z,37.90
2017-09-19T12:54:24.305Z,39.50
2017-09-19T12:56:50.462Z,39.50
2017-09-19T12:59:16.579Z,39.50
2017-09-19T13:01:43.496Z,41.80
2017-09-19T13:04:09.676Z,41.80
2017-09-19T13:06:35.826Z,40.90
2017-09-19T13:09:02.735Z,43.50
2017-09-19T13:11:28.885Z,43.00
2017-09-19T13:13:55.737Z,45.00
2017-09-19T13:16:22.022Z,44.80
2017-09-19T13:18:52.878Z,41.40
2017-09-19T13:21:19.026Z,44.30
2017-09-19T13:23:45.195Z,42.70
2017-09-19T13:26:11.457Z,45.40
2017-09-19T13:28:37.603Z,45.90
2017-09-19T13:31:15.934Z,45.10
2017-09-19T13:33:45.099Z,46.60
2017-09-19T13:36:11.391Z,47.70
2017-09-19T13:38:37.568Z,48.40
2017-09-19T13:41:03.726Z,46.40
2017-09-19T13:43:29.895Z,47.10
2017-09-19T13:45:56.032Z,44.10
2017-09-19T13:48:22.938Z,45.10
2017-09-19T13:50:49.085Z,45.10
2017-09-19T13:53:15.304Z,45.20
2017-09-19T13:55:41.468Z,45.00
2017-09-19T13:58:07.628Z,45.50
2017-09-19T14:00:33.819Z,44.40
2017-09-19T14:03:00.722Z,45.00
2017-09-19T14:05:26.900Z,44.90
2017-09-19T14:07:53.083Z,44.50
2017-09-19T14:10:19.243Z,44.40
2017-09-19T14:12:45.465Z,45.10
2017-09-19T14:15:11.638Z,44.10
2017-09-19T14:17:37.826Z,43.50
2017-09-19T14:20:03.978Z,48.10
2017-09-19T14:22:30.127Z,49.20
2017-09-19T14:24:56.284Z,47.50
2017-09-19T14:27:22.434Z,46.40
2017-09-19T14:29:48.576Z,48.20
2017-09-19T14:32:15.646Z,45.30
2017-09-19T14:34:41.848Z,45.30
2017-09-19T14:37:08.022Z,44.90
2017-09-19T14:39:34.168Z,44.80
2017-09-19T14:42:00.386Z,43.80
2017-09-19T14:44:26.568Z,45.00
2017-09-19T14:46:52.735Z,45.90
2017-09-19T14:49:18.900Z,45.20
2017-09-19T14:51:45.775Z,45.90
2017-09-19T14:54:11.930Z,45.90
2017-09-19T14:56:38.072Z,45.70
2017-09-19T14:59:04.230Z,46.60
2017-09-19T15:01:30.389Z,46.20
2017-09-19T15:04:01.023Z,45.80
2017-09-19T15:06:28.239Z,45.80
2017-09-19T15:08:54.408Z,46.90
2017-09-19T15:11:20.740Z,47.80
2017-09-19T15:13:51.166Z,46.70
2017-09-19T15:16:20.588Z,46.00
2017-09-19T15:18:47.546Z,45.40
2017-09-19T15:21:13.679Z,45.40
2017-09-19T15:23:39.839Z,46.00
2017-09-19T15:26:05.972Z,46.20
2017-09-19T15:28:32.122Z,46.70
2017-09-19T15:30:58.255Z,46.50
2017-09-19T15:33:24.459Z,47.00
2017-09-19T15:35:51.341Z,47.70
2017-09-19T15:38:17.630Z,47.70
2017-09-19T15:40:43.790Z,47.60
2017-09-19T15:43:09.919Z,47.50
2017-09-19T15:45:36.129Z,48.00
2017-09-19T15:48:02.287Z,48.30
2017-09-19T15:50:28.530Z,49.10
2017-09-19T15:52:54.651Z,49.30
2017-09-19T15:55:20.814Z,49.90
2017-09-19T15:57:46.938Z,50.20
2017-09-19T16:00:13.905Z,50.80
2017-09-19T16:02:40.052Z,51.10
2017-09-19T16:05:06.229Z,52.00
2017-09-19T16:07:32.391Z,52.50
2017-09-19T16:09:58.551Z,52.40
2017-09-19T16:12:24.693Z,52.40
2017-09-19T16:14:50.953Z,52.10
2017-09-19T16:17:17.168Z,52.50
2017-09-19T16:19:43.310Z,52.00
2017-09-19T16:22:09.520Z,52.10
2017-09-19T16:24:35.631Z,52.80
2017-09-19T16:27:01.798Z,52.10
2017-09-19T16:29:27.947Z,52.60
2017-09-19T16:31:54.103Z,53.20
2017-09-19T16:34:20.251Z,52.40
2017-09-19T16:36:46.415Z,52.60
2017-09-19T16:39:13.307Z,52.80
2017-09-19T16:41:39.460Z,52.80
2017-09-19T16:44:06.371Z,52.90
2017-09-19T16:46:32.538Z,52.90
2017-09-19T16:48:58.693Z,53.20
2017-09-19T16:51:25.737Z,53.00
2017-09-19T16:53:52.752Z,53.20
2017-09-19T16:56:18.952Z,53.20
2017-09-19T16:58:45.127Z,52.40
2017-09-19T17:01:11.284Z,52.60
2017-09-19T17:03:37.467Z,52.90
2017-09-19T17:06:03.619Z,52.80
2017-09-19T17:08:29.799Z,53.50
2017-09-19T17:10:55.971Z,54.40
2017-09-19T17:13:26.705Z,53.70
2017-09-19T17:15:52.894Z,54.10
2017-09-19T17:18:19.079Z,54.10
2017-09-19T17:20:45.241Z,54.70
2017-09-19T17:23:11.411Z,54.80
2017-09-19T17:25:38.359Z,54.80
2017-09-19T17:28:04.515Z,54.80
2017-09-19T17:30:30.759Z,55.50
2017-09-19T17:32:56.992Z,55.70
2017-09-19T17:35:23.234Z,55.80
2017-09-19T17:37:49.391Z,56.00
2017-09-19T17:40:15.584Z,56.20
2017-09-19T17:42:41.750Z,56.20
2017-09-19T17:45:07.971Z,56.20
2017-09-19T17:47:34.114Z,56.20
2017-09-19T17:50:00.249Z,56.20
2017-09-19T17:52:26.427Z,56.40
2017-09-19T17:54:52.543Z,56.90
2017-09-19T17:57:18.721Z,57.20
2017-09-19T17:59:44.871Z,57.30
2017-09-19T18:02:11.036Z,57.70
2017-09-19T18:04:37.172Z,57.60
2017-09-19T18:07:03.326Z,57.50
2017-09-19T18:09:29.528Z,57.50
2017-09-19T18:11:55.680Z,57.50
2017-09-19T18:14:22.542Z,57.60
2017-09-19T18:16:48.708Z,57.60
2017-09-19T18:19:14.830Z,58.00
2017-09-19T18:21:40.977Z,58.30
2017-09-19T18:24:07.116Z,58.90
2017-09-19T18:26:33.247Z,58.90
2017-09-19T18:28:59.391Z,59.00
2017-09-19T18:31:26.264Z,59.60
2017-09-19T18:33:52.415Z,59.60
2017-09-19T18:36:19.295Z,60.90
2017-09-19T18:38:45.491Z,60.10
2017-09-19T18:41:11.636Z,60.40
2017-09-19T18:43:37.794Z,60.80
2017-09-19T18:46:04.658Z,61.30
2017-09-19T18:48:30.808Z,61.30
2017-09-19T18:50:58.980Z,60.80
2017-09-19T18:53:25.862Z,61.10
2017-09-19T18:55:52.005Z,61.10
2017-09-19T18:58:18.180Z,61.20
2017-09-19T19:00:44.645Z,61.20
2017-09-19T19:03:10.799Z,61.70
2017-09-19T19:05:37.064Z,62.30
2017-09-19T19:08:03.214Z,63.00
2017-09-19T19:10:29.390Z,63.00
2017-09-19T19:12:56.277Z,63.30
2017-09-19T19:15:22.528Z,63.30
2017-09-19T19:17:49.475Z,62.60
2017-09-19T19:20:15.704Z,62.50
2017-09-19T19:22:41.871Z,62.50
2017-09-19T19:25:08.088Z,62.90
2017-09-19T19:27:34.279Z,62.80
2017-09-19T19:30:00.479Z,62.70
2017-09-19T19:32:26.695Z,62.30
2017-09-19T19:34:52.862Z,62.40
2017-09-19T19:37:19.022Z,61.60
2017-09-19T19:39:45.211Z,61.40
2017-09-19T19:42:11.404Z,62.10
2017-09-19T19:44:37.562Z,62.70
2017-09-19T19:47:03.699Z,62.60
2017-09-19T19:49:29.886Z,62.70
2017-09-19T19:51:56.012Z,63.10
2017-09-19T19:54:22.185Z,63.40
2017-09-19T19:56:48.330Z,63.20
2017-09-19T19:59:14.478Z,63.60
2017-09-19T20:01:40.646Z,62.90
2017-09-19T20:04:06.795Z,62.50
2017-09-19T20:06:33.177Z,62.70
2017-09-19T20:08:59.315Z,63.10
2017-09-19T20:11:25.490Z,63.30
2017-09-19T20:13:51.650Z,63.80
2017-09-19T20:16:17.919Z,63.90
2017-09-19T20:18:44.063Z,64.10
2017-09-19T20:21:10.371Z,64.10
2017-09-19T20:23:36.522Z,63.90
2017-09-19T20:26:02.690Z,64.70
2017-09-19T20:28:28.988Z,64.10
2017-09-19T20:30:55.176Z,63.90
2017-09-19T20:33:21.312Z,63.70
2017-09-19T20:35:47.447Z,63.40
2017-09-19T20:38:13.655Z,63.50
2017-09-19T20:40:39.799Z,63.80
2017-09-19T20:43:05.958Z,64.10
2017-09-19T20:45:32.105Z,64.00
2017-09-19T20:47:58.292Z,63.80
2017-09-19T20:50:25.475Z,63.70
2017-09-19T20:52:51.627Z,63.90
2017-09-19T20:55:17.761Z,64.40
2017-09-19T20:57:43.910Z,64.20
2017-09-19T21:00:10.051Z,65.10
2017-09-19T21:02:36.144Z,65.00
2017-09-19T21:05:08.317Z,64.70
2017-09-19T21:07:40.738Z,64.90
2017-09-19T21:10:13.750Z,65.20
2017-09-19T21:12:46.172Z,65.20
2017-09-19T21:15:18.444Z,65.20
2017-09-19T21:17:51.388Z,65.30
2017-09-19T21:20:17.439Z,65.30
2017-09-19T21:22:43.610Z,65.30
2017-09-19T21:25:09.772Z,65.30
2017-09-19T21:27:36.990Z,65.20
2017-09-19T21:30:03.158Z,65.30
2017-09-19T21:32:29.335Z,65.50
2017-09-19T21:34:55.461Z,64.80
2017-09-19T21:37:21.611Z,65.30
2017-09-19T21:39:47.730Z,65.20
2017-09-19T21:42:14.602Z,65.20
2017-09-19T21:44:40.760Z,65.10
2017-09-19T21:47:06.887Z,65.20
2017-09-19T21:49:33.043Z,65.20
2017-09-19T21:51:59.189Z,65.20
2017-09-19T21:54:25.343Z,65.20
2017-09-19T21:56:51.494Z,64.60
2017-09-19T21:59:17.671Z,64.40
2017-09-19T22:01:43.912Z,64.30
2017-09-19T22:04:10.062Z,64.30
2017-09-19T22:06:36.962Z,64.00
2017-09-19T22:09:03.146Z,64.00
2017-09-19T22:11:30.346Z,62.90
2017-09-19T22:13:56.522Z,62.40
2017-09-19T22:16:22.664Z,62.20
2017-09-19T22:18:49.560Z,62.10
2017-09-19T22:21:15.698Z,62.10
2017-09-19T22:23:42.683Z,62.40
2017-09-19T22:26:08.800Z,62.50
2017-09-19T22:28:34.962Z,62.40
2017-09-19T22:31:01.835Z,63.80
2017-09-19T22:33:27.963Z,63.80
2017-09-19T22:35:54.127Z,65.10
2017-09-19T22:38:20.281Z,65.10
2017-09-19T22:40:46.419Z,65.10
2017-09-19T22:43:13.303Z,65.10
2017-09-19T22:45:39.434Z,65.00
2017-09-19T22:48:05.566Z,65.10
2017-09-19T22:50:31.731Z,65.00
2017-09-19T22:52:57.870Z,65.10
2017-09-19T22:55:24.136Z,65.00
2017-09-19T22:57:50.250Z,65.00
2017-09-19T23:00:16.401Z,65.00
2017-09-19T23:02:42.527Z,65.00
2017-09-19T23:05:08.665Z,64.90
2017-09-19T23:07:35.547Z,65.40
2017-09-19T23:10:01.718Z,65.30
2017-09-19T23:12:27.875Z,65.40
2017-09-19T23:14:54.007Z,65.00
2017-09-19T23:17:20.184Z,65.20
2017-09-19T23:19:46.335Z,65.30
2017-09-19T23:22:12.470Z,65.40
2017-09-19T23:24:39.403Z,66.00
2017-09-19T23:27:05.550Z,66.00
2017-09-19T23:29:31.666Z,65.50
2017-09-19T23:31:57.836Z,65.20
2017-09-19T23:34:23.972Z,65.10
2017-09-19T23:36:50.103Z,65.20
2017-09-19T23:39:16.229Z,65.50
2017-09-19T23:41:42.355Z,65.30
2017-09-19T23:44:08.499Z,65.00
2017-09-19T23:46:34.628Z,65.10
2017-09-19T23:49:00.766Z,65.50
2017-09-19T23:51:26.896Z,65.60
2017-09-19T23:53:53.012Z,65.50
2017-09-19T23:56:19.151Z,65.40
2017-09-19T23:58:45.255Z,65.00
